createdAt,value
2022-10-19T00:01:18.896Z,20.80
2022-10-19T00:03:51.502Z,20.70
2022-10-19T00:06:25.522Z,20.70
2022-10-19T00:08:55.269Z,20.70
2022-10-19T00:11:24.639Z,20.70
2022-10-19T00:13:54.171Z,20.70
2022-10-19T00:16:24.658Z,20.70
2022-10-19T00:18:57.849Z,20.70
2022-10-19T00:21:26.248Z,20.70
2022-10-19T00:23:54.486Z,20.70
2022-10-19T00:26:22.513Z,20.60
2022-10-19T00:28:51.331Z,20.60
2022-10-19T00:31:19.569Z,20.60
2022-10-19T00:33:48.562Z,20.60
2022-10-19T00:36:20.663Z,20.60
2022-10-19T00:38:49.047Z,20.60
2022-10-19T00:41:19.034Z,20.50
2022-10-19T00:43:58.297Z,20.50
2022-10-19T00:46:28.405Z,20.50
2022-10-19T00:49:02.632Z,20.50
2022-10-19T00:51:36.960Z,20.40
2022-10-19T00:54:07.378Z,20.40
2022-10-19T00:56:38.798Z,20.40
2022-10-19T00:59:08.951Z,20.40
2022-10-19T01:01:37.798Z,20.40
2022-10-19T01:04:06.467Z,20.40
2022-10-19T01:06:37.097Z,20.40
2022-10-19T01:09:06.338Z,20.40
2022-10-19T01:11:52.847Z,20.30
2022-10-19T01:14:41.429Z,20.30
2022-10-19T01:17:23.995Z,20.20
2022-10-19T01:20:39.652Z,20.20
2022-10-19T01:23:44.734Z,20.20
2022-10-19T01:26:41.308Z,20.10
2022-10-19T01:29:19.841Z,20.10
2022-10-19T01:32:01.016Z,20.10
2022-10-19T01:34:37.473Z,20.10
2022-10-19T01:37:18.399Z,20.00
2022-10-19T01:39:54.454Z,20.00
2022-10-19T01:42:30.519Z,20.00
2022-10-19T01:45:08.019Z,20.00
2022-10-19T01:47:47.001Z,20.00
2022-10-19T01:50:22.460Z,20.00
2022-10-19T01:52:52.642Z,20.00
2022-10-19T01:55:23.206Z,20.00
2022-10-19T01:58:00.085Z,19.90
2022-10-19T02:00:30.483Z,19.90
2022-10-19T02:03:01.996Z,19.90
2022-10-19T02:05:34.030Z,19.90
2022-10-19T02:08:09.028Z,19.80
2022-10-19T02:10:40.930Z,19.80
2022-10-19T02:13:10.564Z,19.80
2022-10-19T02:15:44.723Z,19.80
2022-10-19T02:18:19.250Z,19.80
2022-10-19T02:20:48.032Z,19.80
2022-10-19T02:23:21.630Z,19.70
2022-10-19T02:25:49.970Z,19.70
2022-10-19T02:28:18.281Z,19.70
2022-10-19T02:30:46.423Z,19.70
2022-10-19T02:33:16.835Z,19.70
2022-10-19T02:35:45.311Z,19.70
2022-10-19T02:38:20.670Z,19.60
2022-10-19T02:41:00.944Z,19.60
2022-10-19T02:43:32.999Z,19.60
2022-10-19T02:46:06.584Z,19.60
2022-10-19T02:48:39.910Z,19.50
2022-10-19T02:51:07.908Z,19.60
2022-10-19T02:53:35.892Z,19.60
2022-10-19T02:56:03.898Z,19.50
2022-10-19T02:58:31.901Z,19.50
2022-10-19T03:00:59.927Z,19.50
2022-10-19T03:03:27.909Z,19.50
2022-10-19T03:05:58.057Z,19.50
2022-10-19T03:08:26.100Z,19.30
2022-10-19T03:10:54.077Z,19.40
2022-10-19T03:13:22.085Z,19.40
2022-10-19T03:15:50.280Z,19.40
2022-10-19T03:18:18.304Z,19.40
2022-10-19T03:20:46.293Z,19.40
2022-10-19T03:23:15.621Z,19.40
2022-10-19T03:25:43.580Z,19.40
2022-10-19T03:28:11.586Z,19.40
2022-10-19T03:30:39.580Z,19.30
2022-10-19T03:33:07.566Z,19.30
2022-10-19T03:35:35.572Z,19.30
2022-10-19T03:38:03.567Z,19.30
2022-10-19T03:40:32.977Z,19.30
2022-10-19T03:43:00.935Z,19.30
2022-10-19T03:45:28.954Z,19.20
2022-10-19T03:47:56.955Z,19.30
2022-10-19T03:50:25.251Z,19.30
2022-10-19T03:52:53.448Z,19.30
2022-10-19T03:55:21.444Z,19.20
2022-10-19T03:57:50.761Z,19.20
2022-10-19T04:00:18.864Z,19.20
2022-10-19T04:02:46.846Z,19.20
2022-10-19T04:05:15.018Z,19.20
2022-10-19T04:07:43.002Z,19.20
2022-10-19T04:10:11.292Z,19.20
2022-10-19T04:12:39.293Z,19.20
2022-10-19T04:15:10.381Z,19.20
2022-10-19T04:17:38.370Z,19.20
2022-10-19T04:20:07.826Z,19.20
2022-10-19T04:22:35.828Z,19.20
2022-10-19T04:25:03.856Z,19.20
2022-10-19T04:27:32.168Z,19.10
2022-10-19T04:30:00.463Z,19.10
2022-10-19T04:32:29.776Z,19.10
2022-10-19T04:34:57.782Z,19.10
2022-10-19T04:37:25.815Z,19.10
2022-10-19T04:39:53.835Z,19.10
2022-10-19T04:42:21.827Z,19.10
2022-10-19T04:44:49.829Z,19.10
2022-10-19T04:47:18.998Z,19.10
2022-10-19T04:49:48.364Z,19.10
2022-10-19T04:52:16.416Z,19.10
2022-10-19T04:54:44.414Z,19.10
2022-10-19T04:57:12.429Z,19.10
2022-10-19T04:59:40.431Z,19.10
2022-10-19T05:02:08.453Z,19.10
2022-10-19T05:04:36.455Z,19.10
2022-10-19T05:07:05.828Z,19.10
2022-10-19T05:09:33.832Z,19.10
2022-10-19T05:12:01.849Z,19.10
2022-10-19T05:14:29.830Z,19.10
2022-10-19T05:16:57.813Z,19.10
2022-10-19T05:19:26.043Z,19.10
2022-10-19T05:21:54.042Z,19.10
2022-10-19T05:24:23.534Z,19.10
2022-10-19T05:26:51.562Z,19.10
2022-10-19T05:29:19.576Z,19.10
2022-10-19T05:31:47.568Z,19.10
2022-10-19T05:34:15.563Z,19.00
2022-10-19T05:36:43.581Z,19.00
2022-10-19T05:39:16.110Z,19.00
2022-10-19T05:41:47.411Z,19.00
2022-10-19T05:44:18.501Z,19.00
2022-10-19T05:46:47.361Z,19.00
2022-10-19T05:49:17.792Z,19.00
2022-10-19T05:51:46.395Z,19.00
2022-10-19T05:54:15.721Z,19.00
2022-10-19T05:56:45.870Z,19.00
2022-10-19T05:59:18.687Z,19.00
2022-10-19T06:01:47.683Z,19.00
2022-10-19T06:06:45.832Z,19.00
2022-10-19T06:09:14.049Z,19.00
2022-10-19T06:11:44.814Z,19.00
2022-10-19T06:14:16.248Z,19.00
2022-10-19T06:16:45.792Z,19.00
2022-10-19T06:19:14.003Z,19.00
2022-10-19T06:21:44.959Z,19.00
2022-10-19T06:24:14.256Z,19.00
2022-10-19T06:26:42.314Z,19.00
2022-10-19T06:29:12.255Z,19.00
2022-10-19T06:31:40.295Z,19.00
2022-10-19T06:34:08.636Z,19.00
2022-10-19T06:36:36.718Z,19.00
2022-10-19T06:39:05.417Z,19.00
2022-10-19T06:41:34.924Z,19.00
2022-10-19T06:44:20.677Z,19.00
2022-10-19T06:46:48.746Z,19.00
2022-10-19T06:49:16.887Z,19.00
2022-10-19T06:51:44.906Z,19.00
2022-10-19T06:54:12.920Z,19.00
2022-10-19T06:56:40.909Z,19.00
2022-10-19T06:59:09.070Z,19.00
2022-10-19T07:01:38.392Z,19.00
2022-10-19T07:04:06.728Z,19.00
2022-10-19T07:06:34.801Z,19.00
2022-10-19T07:09:02.955Z,19.00
2022-10-19T07:11:31.001Z,19.00
2022-10-19T07:13:59.027Z,18.90
2022-10-19T07:16:27.090Z,19.00
2022-10-19T07:18:56.436Z,19.00
2022-10-19T07:21:24.814Z,19.00
2022-10-19T07:23:53.103Z,19.00
2022-10-19T07:26:26.707Z,19.00
2022-10-19T07:28:57.834Z,19.00
2022-10-19T07:31:29.027Z,19.00
2022-10-19T07:34:00.854Z,19.00
2022-10-19T07:36:31.160Z,19.00
2022-10-19T07:38:59.237Z,19.00
2022-10-19T07:41:27.646Z,19.00
2022-10-19T07:43:57.731Z,19.00
2022-10-19T07:46:29.512Z,19.00
2022-10-19T07:48:58.845Z,19.00
2022-10-19T07:53:58.659Z,19.00
2022-10-19T07:56:28.692Z,19.00
2022-10-19T07:58:59.771Z,19.00
2022-10-19T08:01:30.152Z,18.90
2022-10-19T08:06:49.214Z,19.00
2022-10-19T08:09:40.080Z,19.00
2022-10-19T08:12:07.044Z,19.00
2022-10-19T08:14:35.558Z,19.00
2022-10-19T08:17:03.999Z,19.00
2022-10-19T08:19:33.500Z,19.00
2022-10-19T08:22:01.491Z,19.00
2022-10-19T08:24:29.622Z,19.00
2022-10-19T08:26:58.677Z,19.00
2022-10-19T08:29:29.125Z,19.00
2022-10-19T08:32:00.049Z,19.10
2022-10-19T08:34:28.278Z,19.10
2022-10-19T08:36:57.687Z,19.00
2022-10-19T08:39:25.740Z,19.10
2022-10-19T08:42:02.886Z,19.00
2022-10-19T08:45:17.533Z,19.00
2022-10-19T08:48:00.623Z,19.00
2022-10-19T08:50:37.503Z,19.00
2022-10-19T08:53:13.130Z,19.00
2022-10-19T08:55:54.933Z,19.00
2022-10-19T08:58:48.474Z,19.00
2022-10-19T09:01:33.842Z,19.00
2022-10-19T09:04:12.269Z,19.00
2022-10-19T09:07:00.613Z,19.00
2022-10-19T09:09:33.646Z,19.00
2022-10-19T09:12:08.219Z,19.00
2022-10-19T09:14:50.776Z,18.90
2022-10-19T09:17:18.765Z,19.10
2022-10-19T09:19:46.873Z,19.10
2022-10-19T09:22:21.621Z,19.10
2022-10-19T09:24:55.159Z,19.10
2022-10-19T09:27:25.557Z,19.10
2022-10-19T09:29:58.410Z,19.10
2022-10-19T09:32:32.437Z,19.10
2022-10-19T09:35:04.576Z,19.10
2022-10-19T09:37:41.256Z,19.10
2022-10-19T09:40:20.156Z,19.10
2022-10-19T09:42:52.841Z,19.20
2022-10-19T09:45:35.368Z,19.20
2022-10-19T09:48:13.567Z,19.20
2022-10-19T09:50:45.534Z,19.20
2022-10-19T09:53:21.794Z,19.20
2022-10-19T09:55:59.895Z,19.20
2022-10-19T09:58:32.957Z,19.20
2022-10-19T10:01:03.703Z,19.20
2022-10-19T10:03:36.619Z,19.20
2022-10-19T10:06:09.579Z,19.30
2022-10-19T10:08:46.316Z,19.30
2022-10-19T10:11:24.863Z,19.30
2022-10-19T10:13:56.888Z,19.30
2022-10-19T10:16:33.295Z,19.30
2022-10-19T10:19:06.772Z,19.30
2022-10-19T10:21:48.234Z,19.30
2022-10-19T10:24:21.616Z,19.30
2022-10-19T10:26:53.941Z,19.30
2022-10-19T10:29:24.649Z,19.40
2022-10-19T10:31:57.328Z,19.40
2022-10-19T10:34:45.987Z,19.40
2022-10-19T10:37:22.775Z,19.40
2022-10-19T10:39:56.619Z,19.40
2022-10-19T10:42:35.966Z,19.40
2022-10-19T10:45:11.599Z,19.40
2022-10-19T10:47:40.784Z,19.40
2022-10-19T10:50:20.514Z,19.40
2022-10-19T10:53:00.722Z,19.30
2022-10-19T10:55:30.354Z,19.50
2022-10-19T10:58:16.725Z,19.40
2022-10-19T11:00:47.683Z,19.50
2022-10-19T11:03:25.053Z,19.50
2022-10-19T11:05:58.676Z,19.50
2022-10-19T11:08:34.628Z,19.40
2022-10-19T11:11:15.135Z,19.50
2022-10-19T11:13:52.455Z,19.40
2022-10-19T11:16:27.677Z,19.50
2022-10-19T11:19:07.602Z,19.50
2022-10-19T11:21:45.312Z,19.50
2022-10-19T11:24:23.456Z,19.50
2022-10-19T11:27:12.314Z,19.50
2022-10-19T11:30:02.477Z,19.50
2022-10-19T11:32:46.012Z,19.50
2022-10-19T11:35:46.859Z,19.50
2022-10-19T11:38:35.148Z,19.50
2022-10-19T11:41:27.514Z,19.40
2022-10-19T11:44:24.052Z,19.40
2022-10-19T11:47:19.312Z,19.40
2022-10-19T11:50:03.590Z,19.40
2022-10-19T11:52:47.019Z,19.50
2022-10-19T11:55:34.302Z,19.50
2022-10-19T11:58:34.885Z,19.50
2022-10-19T12:01:22.948Z,19.50
2022-10-19T12:04:43.745Z,19.40
2022-10-19T12:07:55.589Z,19.40
2022-10-19T12:10:32.346Z,19.40
2022-10-19T12:13:07.117Z,19.40
2022-10-19T12:15:43.017Z,19.40
2022-10-19T12:18:20.433Z,19.40
2022-10-19T12:20:55.833Z,19.40
2022-10-19T12:23:33.150Z,19.40
2022-10-19T12:26:07.641Z,19.40
2022-10-19T12:28:41.841Z,19.40
2022-10-19T12:31:12.485Z,19.50
2022-10-19T12:33:50.498Z,19.40
2022-10-19T12:36:35.888Z,19.40
2022-10-19T12:39:17.527Z,19.40
2022-10-19T12:41:57.531Z,19.40
2022-10-19T12:44:58.874Z,19.40
2022-10-19T12:47:27.739Z,19.50
2022-10-19T12:49:56.539Z,19.50
2022-10-19T12:52:40.732Z,19.40
2022-10-19T12:55:25.416Z,19.40
2022-10-19T12:58:05.782Z,19.40
2022-10-19T13:00:37.247Z,19.40
2022-10-19T13:03:14.972Z,19.40
2022-10-19T13:05:56.204Z,19.50
2022-10-19T13:08:33.130Z,19.40
2022-10-19T13:11:08.283Z,19.40
2022-10-19T13:14:02.496Z,19.40
2022-10-19T13:16:58.855Z,19.40
2022-10-19T13:19:27.599Z,19.40
2022-10-19T13:22:29.260Z,19.40
2022-10-19T13:25:30.589Z,19.30
2022-10-19T13:28:03.278Z,19.40
2022-10-19T13:31:08.182Z,19.30
2022-10-19T13:33:55.491Z,19.30
2022-10-19T13:36:25.922Z,19.40
2022-10-19T13:39:14.861Z,19.30
2022-10-19T13:41:53.634Z,19.30
2022-10-19T13:44:26.878Z,19.40
2022-10-19T13:47:34.343Z,19.30
2022-10-19T13:50:36.167Z,19.30
2022-10-19T13:53:35.518Z,19.30
2022-10-19T13:59:43.849Z,19.30
2022-10-19T14:03:01.653Z,19.30
2022-10-19T14:06:06.990Z,19.30
2022-10-19T14:08:54.178Z,19.30
2022-10-19T14:11:29.268Z,19.30
2022-10-19T14:14:17.336Z,19.30
2022-10-19T14:16:59.637Z,19.30
2022-10-19T14:19:35.090Z,19.30
2022-10-19T14:22:21.866Z,19.30
2022-10-19T14:24:50.034Z,19.30
2022-10-19T14:27:24.028Z,19.30
2022-10-19T14:29:55.279Z,19.30
2022-10-19T14:32:28.769Z,19.30
2022-10-19T14:35:06.743Z,19.30
2022-10-19T14:37:35.905Z,19.30
2022-10-19T14:40:26.611Z,19.30
2022-10-19T14:42:57.825Z,19.30
2022-10-19T14:45:28.932Z,19.30
2022-10-19T14:48:02.077Z,19.30
2022-10-19T14:50:43.233Z,19.30
2022-10-19T14:53:31.228Z,19.30
2022-10-19T14:56:05.160Z,19.30
2022-10-19T14:58:42.437Z,19.30
2022-10-19T15:01:12.798Z,19.30
2022-10-19T15:03:46.736Z,19.30
2022-10-19T15:06:20.917Z,19.30
2022-10-19T15:11:31.384Z,19.30
2022-10-19T15:14:07.308Z,19.30
2022-10-19T15:16:51.471Z,19.30
2022-10-19T15:19:28.644Z,19.30
2022-10-19T15:22:19.975Z,19.30
2022-10-19T15:25:02.255Z,19.20
2022-10-19T15:27:34.197Z,19.30
2022-10-19T15:30:07.252Z,19.30
2022-10-19T15:32:38.764Z,19.20
2022-10-19T15:35:18.799Z,19.20
2022-10-19T15:37:50.171Z,19.30
2022-10-19T15:40:25.147Z,19.30
2022-10-19T15:42:53.525Z,19.30
2022-10-19T15:45:36.369Z,19.20
2022-10-19T15:48:26.839Z,19.20
2022-10-19T15:50:58.576Z,19.20
2022-10-19T15:53:28.168Z,19.30
2022-10-19T15:55:56.339Z,19.30
2022-10-19T15:58:25.187Z,19.30
2022-10-19T16:00:53.355Z,19.30
2022-10-19T16:03:21.342Z,19.30
2022-10-19T16:05:49.517Z,19.30
2022-10-19T16:08:18.931Z,19.20
2022-10-19T16:10:46.959Z,19.20
2022-10-19T16:13:14.950Z,19.20
2022-10-19T16:15:43.107Z,19.20
2022-10-19T16:18:12.212Z,19.20
2022-10-19T16:20:40.387Z,19.20
2022-10-19T16:23:09.289Z,19.20
2022-10-19T16:25:38.685Z,19.20
2022-10-19T16:28:06.759Z,19.20
2022-10-19T16:30:34.789Z,19.20
2022-10-19T16:33:02.849Z,19.20
2022-10-19T16:35:30.926Z,19.20
2022-10-19T16:37:59.046Z,19.20
2022-10-19T16:40:27.090Z,19.20
2022-10-19T16:42:58.766Z,19.20
2022-10-19T16:45:27.614Z,19.20
2022-10-19T16:47:55.707Z,19.20
2022-10-19T16:50:23.887Z,19.20
2022-10-19T16:53:06.009Z,19.10
2022-10-19T16:55:34.068Z,19.10
2022-10-19T16:58:03.537Z,19.10
2022-10-19T17:00:31.683Z,19.10
2022-10-19T17:03:00.466Z,19.00
2022-10-19T17:05:28.796Z,19.10
2022-10-19T17:07:56.827Z,19.10
2022-10-19T17:10:25.536Z,19.10
2022-10-19T17:12:54.214Z,19.10
2022-10-19T17:15:42.502Z,19.00
2022-10-19T17:18:11.730Z,19.00
2022-10-19T17:20:39.955Z,19.00
2022-10-19T17:23:08.096Z,19.00
2022-10-19T17:25:36.387Z,19.00
2022-10-19T17:28:04.704Z,19.00
2022-10-19T17:30:34.408Z,18.90
2022-10-19T17:33:02.735Z,18.80
2022-10-19T17:35:30.850Z,18.90
2022-10-19T17:37:59.253Z,18.90
2022-10-19T17:40:28.229Z,18.90
2022-10-19T17:42:56.389Z,18.90
2022-10-19T17:45:24.562Z,18.90
2022-10-19T17:47:55.784Z,18.80
2022-10-19T17:50:24.741Z,18.80
2022-10-19T17:52:54.722Z,18.80
2022-10-19T17:57:59.069Z,18.70
2022-10-19T18:00:28.667Z,18.70
2022-10-19T18:02:59.316Z,18.70
2022-10-19T18:05:28.805Z,18.60
2022-10-19T18:07:56.820Z,18.70
2022-10-19T18:10:25.329Z,18.60
2022-10-19T18:12:54.578Z,18.60
2022-10-19T18:15:22.710Z,18.60
2022-10-19T18:17:51.083Z,18.60
2022-10-19T18:20:20.527Z,18.50
2022-10-19T18:22:49.608Z,18.50
2022-10-19T18:25:21.820Z,18.50
2022-10-19T18:28:01.773Z,18.50
2022-10-19T18:30:30.672Z,18.40
2022-10-19T18:33:01.458Z,18.40
2022-10-19T18:35:38.714Z,18.30
2022-10-19T18:38:08.662Z,18.30
2022-10-19T18:40:39.566Z,18.30
2022-10-19T18:43:07.834Z,18.30
2022-10-19T18:45:36.598Z,18.30
2022-10-19T18:48:05.100Z,18.30
2022-10-19T18:50:34.469Z,18.20
2022-10-19T18:53:03.196Z,18.20
2022-10-19T18:55:31.319Z,18.20
2022-10-19T18:57:59.578Z,18.20
2022-10-19T19:00:28.420Z,18.10
2022-10-19T19:02:57.899Z,18.10
2022-10-19T19:05:26.177Z,18.10
2022-10-19T19:07:56.309Z,18.10
2022-10-19T19:10:27.019Z,18.00
2022-10-19T19:12:57.139Z,18.00
2022-10-19T19:15:27.176Z,18.00
2022-10-19T19:17:56.970Z,18.00
2022-10-19T19:20:25.174Z,17.90
2022-10-19T19:22:53.270Z,17.90
2022-10-19T19:25:22.764Z,17.90
2022-10-19T19:27:51.637Z,17.90
2022-10-19T19:30:19.694Z,17.80
2022-10-19T19:32:47.946Z,17.80
2022-10-19T19:35:16.785Z,17.80
2022-10-19T19:37:45.139Z,17.60
2022-10-19T19:40:13.933Z,17.70
2022-10-19T19:42:43.290Z,17.70
2022-10-19T19:45:13.553Z,17.70
2022-10-19T19:47:41.981Z,17.70
2022-10-19T19:50:11.020Z,17.60
2022-10-19T19:52:40.525Z,17.60
2022-10-19T19:55:10.075Z,17.60
2022-10-19T19:57:38.466Z,17.50
2022-10-19T20:00:10.372Z,17.50
2022-10-19T20:02:41.420Z,17.50
2022-10-19T20:05:10.736Z,17.50
2022-10-19T20:07:38.830Z,17.50
2022-10-19T20:10:08.241Z,17.40
2022-10-19T20:12:36.347Z,17.40
2022-10-19T20:15:04.925Z,17.40
2022-10-19T20:17:35.239Z,17.40
2022-10-19T20:20:03.557Z,17.30
2022-10-19T20:22:31.824Z,17.30
2022-10-19T20:25:00.225Z,17.30
2022-10-19T20:27:28.766Z,17.30
2022-10-19T20:29:58.610Z,17.20
2022-10-19T20:32:27.599Z,17.20
2022-10-19T20:34:57.625Z,17.20
2022-10-19T20:37:26.610Z,17.20
2022-10-19T20:39:55.191Z,17.10
2022-10-19T20:42:23.562Z,17.10
2022-10-19T20:44:54.601Z,17.10
2022-10-19T20:47:22.945Z,17.10
2022-10-19T20:49:51.010Z,17.10
2022-10-19T20:52:20.474Z,17.00
2022-10-19T20:54:50.137Z,17.00
2022-10-19T20:57:18.362Z,16.90
2022-10-19T20:59:46.765Z,17.00
2022-10-19T21:02:15.421Z,17.00
2022-10-19T21:04:43.474Z,17.00
2022-10-19T21:07:11.589Z,16.90
2022-10-19T21:09:42.737Z,16.80
2022-10-19T21:12:11.212Z,16.90
2022-10-19T21:14:40.211Z,16.90
2022-10-19T21:17:08.568Z,16.80
2022-10-19T21:19:36.719Z,16.80
2022-10-19T21:22:06.250Z,16.80
2022-10-19T21:24:37.082Z,16.80
2022-10-19T21:27:09.431Z,16.80
2022-10-19T21:29:38.598Z,16.80
2022-10-19T21:32:07.545Z,16.80
2022-10-19T21:34:35.962Z,16.70
2022-10-19T21:37:04.006Z,16.70
2022-10-19T21:39:32.158Z,16.70
2022-10-19T21:42:00.292Z,16.70
2022-10-19T21:44:29.733Z,16.70
2022-10-19T21:46:57.825Z,16.70
2022-10-19T21:49:25.900Z,16.60
2022-10-19T21:51:55.819Z,16.60
2022-10-19T21:54:26.352Z,16.60
2022-10-19T21:56:55.876Z,16.60
2022-10-19T21:59:24.235Z,16.50
2022-10-19T22:01:55.189Z,16.50
2022-10-19T22:04:23.966Z,16.50
2022-10-19T22:06:52.120Z,16.50
2022-10-19T22:09:23.125Z,16.50
2022-10-19T22:11:51.356Z,16.40
2022-10-19T22:14:19.701Z,16.40
2022-10-19T22:16:47.939Z,16.40
2022-10-19T22:19:17.759Z,16.40
2022-10-19T22:21:45.864Z,16.40
2022-10-19T22:24:16.594Z,16.30
2022-10-19T22:26:50.553Z,16.30
2022-10-19T22:29:19.514Z,16.30
2022-10-19T22:31:47.607Z,16.30
2022-10-19T22:34:18.825Z,16.30
2022-10-19T22:36:47.022Z,16.30
2022-10-19T22:39:16.348Z,16.30
2022-10-19T22:41:44.472Z,16.30
2022-10-19T22:44:12.474Z,16.30
2022-10-19T22:46:40.518Z,16.20
2022-10-19T22:51:44.215Z,16.20
2022-10-19T22:54:12.839Z,16.20
2022-10-19T22:56:41.516Z,16.10
2022-10-19T22:59:10.474Z,16.10
2022-10-19T23:01:38.933Z,16.10
2022-10-19T23:04:07.232Z,16.10
2022-10-19T23:06:35.335Z,16.10
2022-10-19T23:09:05.043Z,16.10
2022-10-19T23:11:33.144Z,16.10
2022-10-19T23:14:01.292Z,16.00
2022-10-19T23:16:29.433Z,16.00
2022-10-19T23:18:57.541Z,16.00
2022-10-19T23:21:25.597Z,16.00
2022-10-19T23:23:53.636Z,16.00
2022-10-19T23:26:24.678Z,15.90
2022-10-19T23:28:53.487Z,15.90
2022-10-19T23:31:25.067Z,15.90
2022-10-19T23:33:54.558Z,15.90
2022-10-19T23:36:26.725Z,15.80
2022-10-19T23:38:56.662Z,15.80
2022-10-19T23:41:26.570Z,15.80
2022-10-19T23:43:54.855Z,15.80
2022-10-19T23:46:22.929Z,15.80
2022-10-19T23:48:50.970Z,15.80
2022-10-19T23:51:22.126Z,15.70
2022-10-19T23:53:53.029Z,15.70
2022-10-19T23:56:24.476Z,15.70
2022-10-19T23:58:54.724Z,15.60
